sensor_id;sensor_type;location;lat;lon;timestamp;pressure;altitude;pressure_sealevel;temperature;humidity
69153;BME280;56261;51.580;4.578;2022-08-11T00:02:29;102320.31;;;19.76;64.75
69153;BME280;56261;51.580;4.578;2022-08-11T00:05:02;102316.53;;;19.70;64.52
69153;BME280;56261;51.580;4.578;2022-08-11T00:07:28;102329.25;;;19.55;64.51
69153;BME280;56261;51.580;4.578;2022-08-11T00:09:54;102329.72;;;19.58;63.81
69153;BME280;56261;51.580;4.578;2022-08-11T00:12:21;102327.19;;;19.57;64.45
69153;BME280;56261;51.580;4.578;2022-08-11T00:14:54;102329.13;;;19.41;65.37
69153;BME280;56261;51.580;4.578;2022-08-11T00:17:26;102330.03;;;19.48;66.23
69153;BME280;56261;51.580;4.578;2022-08-11T00:20:00;102326.81;;;19.38;65.86
69153;BME280;56261;51.580;4.578;2022-08-11T00:22:26;102331.84;;;19.26;66.24
69153;BME280;56261;51.580;4.578;2022-08-11T00:24:54;102333.84;;;19.18;65.81
69153;BME280;56261;51.580;4.578;2022-08-11T00:27:36;102335.72;;;19.17;65.49
69153;BME280;56261;51.580;4.578;2022-08-11T00:30:04;102334.31;;;19.21;65.90
69153;BME280;56261;51.580;4.578;2022-08-11T00:32:30;102323.81;;;19.12;65.59
69153;BME280;56261;51.580;4.578;2022-08-11T00:34:57;102333.31;;;19.07;66.00
69153;BME280;56261;51.580;4.578;2022-08-11T00:37:25;102332.75;;;19.12;66.31
69153;BME280;56261;51.580;4.578;2022-08-11T00:39:53;102340.22;;;19.10;65.33
69153;BME280;56261;51.580;4.578;2022-08-11T00:45:11;102343.56;;;19.12;65.15
69153;BME280;56261;51.580;4.578;2022-08-11T01:16:00;102328.50;;;18.73;66.72
69153;BME280;56261;51.580;4.578;2022-08-11T01:48:55;102325.88;;;18.35;69.28
69153;BME280;56261;51.580;4.578;2022-08-11T01:54:48;102320.88;;;18.09;69.66
69153;BME280;56261;51.580;4.578;2022-08-11T01:57:33;102326.41;;;18.16;69.50
69153;BME280;56261;51.580;4.578;2022-08-11T02:00:15;102331.91;;;18.22;69.34
69153;BME280;56261;51.580;4.578;2022-08-11T02:11:31;102320.41;;;18.05;69.96
69153;BME280;56261;51.580;4.578;2022-08-11T02:14:38;102330.91;;;18.00;71.68
69153;BME280;56261;51.580;4.578;2022-08-11T02:17:22;102330.19;;;17.83;71.19
69153;BME280;56261;51.580;4.578;2022-08-11T02:20:09;102324.63;;;17.85;70.93
69153;BME280;56261;51.580;4.578;2022-08-11T02:26:22;102321.38;;;17.90;69.91
69153;BME280;56261;51.580;4.578;2022-08-11T02:29:23;102331.19;;;17.91;70.97
69153;BME280;56261;51.580;4.578;2022-08-11T02:32:20;102321.94;;;17.85;71.28
69153;BME280;56261;51.580;4.578;2022-08-11T02:38:25;102325.47;;;17.86;70.80
69153;BME280;56261;51.580;4.578;2022-08-11T02:47:15;102320.47;;;17.74;71.72
69153;BME280;56261;51.580;4.578;2022-08-11T02:55:29;102319.28;;;17.54;71.93
69153;BME280;56261;51.580;4.578;2022-08-11T02:58:02;102319.22;;;17.62;70.66
69153;BME280;56261;51.580;4.578;2022-08-11T03:00:45;102313.16;;;17.60;71.19
69153;BME280;56261;51.580;4.578;2022-08-11T03:11:13;102313.75;;;17.47;71.74
69153;BME280;56261;51.580;4.578;2022-08-11T03:15:15;102320.22;;;17.38;72.51
69153;BME280;56261;51.580;4.578;2022-08-11T03:17:45;102317.13;;;17.49;70.87
69153;BME280;56261;51.580;4.578;2022-08-11T03:20:35;102315.03;;;17.59;70.16
69153;BME280;56261;51.580;4.578;2022-08-11T03:23:36;102309.28;;;17.39;71.14
69153;BME280;56261;51.580;4.578;2022-08-11T03:26:12;102325.28;;;17.64;70.85
69153;BME280;56261;51.580;4.578;2022-08-11T03:31:48;102308.19;;;17.49;70.87
69153;BME280;56261;51.580;4.578;2022-08-11T03:34:21;102308.19;;;17.49;70.85
69153;BME280;56261;51.580;4.578;2022-08-11T03:37:59;102311.50;;;17.28;71.40
69153;BME280;56261;51.580;4.578;2022-08-11T03:46:27;102307.44;;;17.32;71.55
69153;BME280;56261;51.580;4.578;2022-08-11T03:51:55;102313.13;;;17.37;71.11
69153;BME280;56261;51.580;4.578;2022-08-11T03:57:27;102321.97;;;17.31;71.50
69153;BME280;56261;51.580;4.578;2022-08-11T04:10:58;102322.56;;;17.10;72.37
69153;BME280;56261;51.580;4.578;2022-08-11T04:16:42;102319.97;;;17.25;71.76
69153;BME280;56261;51.580;4.578;2022-08-11T04:35:59;102310.56;;;17.20;72.07
69153;BME280;56261;51.580;4.578;2022-08-11T04:56:01;102305.00;;;17.22;72.74
69153;BME280;56261;51.580;4.578;2022-08-11T05:02:03;102307.69;;;17.22;72.58
69153;BME280;56261;51.580;4.578;2022-08-11T05:04:40;102314.16;;;17.36;72.12
69153;BME280;56261;51.580;4.578;2022-08-11T05:07:58;102312.50;;;17.35;72.21
69153;BME280;56261;51.580;4.578;2022-08-11T05:10:54;102316.06;;;17.27;72.66
69153;BME280;56261;51.580;4.578;2022-08-11T05:13:28;102319.72;;;17.34;72.78
69153;BME280;56261;51.580;4.578;2022-08-11T05:16:17;102313.88;;;17.31;73.22
69153;BME280;56261;51.580;4.578;2022-08-11T05:19:03;102315.97;;;17.43;72.44
69153;BME280;56261;51.580;4.578;2022-08-11T05:21:53;102318.38;;;17.61;71.88
69153;BME280;56261;51.580;4.578;2022-08-11T05:27:31;102316.09;;;17.73;71.39
69153;BME280;56261;51.580;4.578;2022-08-11T05:30:16;102323.66;;;17.78;71.40
69153;BME280;56261;51.580;4.578;2022-08-11T05:33:11;102319.25;;;17.77;71.41
69153;BME280;56261;51.580;4.578;2022-08-11T05:36:16;102313.66;;;17.87;71.00
69153;BME280;56261;51.580;4.578;2022-08-11T05:38:54;102315.81;;;17.91;71.13
69153;BME280;56261;51.580;4.578;2022-08-11T05:41:39;102310.88;;;17.95;71.77
69153;BME280;56261;51.580;4.578;2022-08-11T05:44:25;102317.69;;;18.05;70.93
69153;BME280;56261;51.580;4.578;2022-08-11T05:47:11;102308.94;;;18.03;70.50
69153;BME280;56261;51.580;4.578;2022-08-11T05:50:09;102309.81;;;18.19;70.75
69153;BME280;56261;51.580;4.578;2022-08-11T05:52:53;102312.63;;;18.40;69.97
69153;BME280;56261;51.580;4.578;2022-08-11T05:55:40;102316.94;;;18.50;69.04
69153;BME280;56261;51.580;4.578;2022-08-11T05:58:26;102317.28;;;18.61;68.57
69153;BME280;56261;51.580;4.578;2022-08-11T06:00:56;102315.72;;;18.67;68.08
69153;BME280;56261;51.580;4.578;2022-08-11T06:03:28;102314.97;;;18.73;68.09
69153;BME280;56261;51.580;4.578;2022-08-11T06:05:55;102310.03;;;18.92;67.97
69153;BME280;56261;51.580;4.578;2022-08-11T06:08:32;102318.16;;;18.92;68.37
69153;BME280;56261;51.580;4.578;2022-08-11T06:11:03;102314.41;;;18.93;69.11
69153;BME280;56261;51.580;4.578;2022-08-11T06:13:29;102312.28;;;19.24;67.98
69153;BME280;56261;51.580;4.578;2022-08-11T06:15:56;102309.47;;;19.76;65.78
69153;BME280;56261;51.580;4.578;2022-08-11T06:18:23;102313.88;;;19.77;67.16
69153;BME280;56261;51.580;4.578;2022-08-11T06:20:51;102311.69;;;20.43;63.24
69153;BME280;56261;51.580;4.578;2022-08-11T06:23:19;102308.41;;;20.96;61.83
69153;BME280;56261;51.580;4.578;2022-08-11T06:25:49;102306.19;;;21.20;60.90
69153;BME280;56261;51.580;4.578;2022-08-11T06:28:15;102304.22;;;21.55;59.50
69153;BME280;56261;51.580;4.578;2022-08-11T06:30:43;102300.66;;;22.14;57.43
69153;BME280;56261;51.580;4.578;2022-08-11T06:33:16;102306.06;;;22.34;59.86
69153;BME280;56261;51.580;4.578;2022-08-11T06:44:23;102302.50;;;23.06;54.41
69153;BME280;56261;51.580;4.578;2022-08-11T06:46:52;102300.84;;;23.05;55.48
69153;BME280;56261;51.580;4.578;2022-08-11T06:49:23;102284.03;;;23.46;55.00
69153;BME280;56261;51.580;4.578;2022-08-11T06:52:15;102298.28;;;23.48;53.39
69153;BME280;56261;51.580;4.578;2022-08-11T06:54:51;102292.69;;;24.18;51.64
69153;BME280;56261;51.580;4.578;2022-08-11T06:57:32;102297.13;;;24.56;51.91
69153;BME280;56261;51.580;4.578;2022-08-11T07:00:17;102296.38;;;24.98;50.27
69153;BME280;56261;51.580;4.578;2022-08-11T07:05:30;102304.38;;;24.44;49.58
69153;BME280;56261;51.580;4.578;2022-08-11T07:15:02;102292.31;;;25.49;48.60
69153;BME280;56261;51.580;4.578;2022-08-11T07:17:50;102281.78;;;25.64;47.38
69153;BME280;56261;51.580;4.578;2022-08-11T07:20:38;102299.06;;;25.35;49.17
69153;BME280;56261;51.580;4.578;2022-08-11T07:23:22;102289.75;;;25.66;45.91
69153;BME280;56261;51.580;4.578;2022-08-11T07:26:08;102298.50;;;24.96;48.31
69153;BME280;56261;51.580;4.578;2022-08-11T07:28:53;102301.09;;;24.60;49.37
69153;BME280;56261;51.580;4.578;2022-08-11T07:31:34;102304.56;;;24.98;49.09
69153;BME280;56261;51.580;4.578;2022-08-11T07:36:58;102293.91;;;25.68;46.08
69153;BME280;56261;51.580;4.578;2022-08-11T07:39:27;102300.81;;;25.29;46.90
69153;BME280;56261;51.580;4.578;2022-08-11T07:41:57;102297.97;;;26.37;45.43
69153;BME280;56261;51.580;4.578;2022-08-11T07:44:25;102303.56;;;26.94;42.39
69153;BME280;56261;51.580;4.578;2022-08-11T07:46:53;102297.53;;;26.80;42.95
69153;BME280;56261;51.580;4.578;2022-08-11T07:49:38;102285.91;;;27.30;43.55
69153;BME280;56261;51.580;4.578;2022-08-11T07:52:28;102289.63;;;26.96;42.43
69153;BME280;56261;51.580;4.578;2022-08-11T07:55:05;102295.41;;;27.11;43.74
69153;BME280;56261;51.580;4.578;2022-08-11T07:57:32;102287.13;;;27.85;41.88
69153;BME280;56261;51.580;4.578;2022-08-11T08:00:17;102292.84;;;28.01;40.78
69153;BME280;56261;51.580;4.578;2022-08-11T08:03:03;102279.16;;;28.23;41.36
69153;BME280;56261;51.580;4.578;2022-08-11T08:05:49;102295.56;;;27.50;41.82
69153;BME280;56261;51.580;4.578;2022-08-11T08:08:34;102286.44;;;27.78;41.85
69153;BME280;56261;51.580;4.578;2022-08-11T08:11:19;102290.72;;;28.25;39.69
69153;BME280;56261;51.580;4.578;2022-08-11T08:14:06;102290.66;;;28.42;39.09
69153;BME280;56261;51.580;4.578;2022-08-11T08:16:50;102291.47;;;28.20;39.16
69153;BME280;56261;51.580;4.578;2022-08-11T08:19:35;102290.59;;;27.18;40.63
69153;BME280;56261;51.580;4.578;2022-08-11T08:22:02;102292.75;;;28.51;39.39
69153;BME280;56261;51.580;4.578;2022-08-11T08:24:28;102286.78;;;27.99;39.62
69153;BME280;56261;51.580;4.578;2022-08-11T08:26:54;102298.81;;;28.53;38.00
69153;BME280;56261;51.580;4.578;2022-08-11T08:29:24;102288.72;;;28.59;37.87
69153;BME280;56261;51.580;4.578;2022-08-11T08:32:09;102286.97;;;28.75;37.49
69153;BME280;56261;51.580;4.578;2022-08-11T08:34:36;102293.63;;;28.57;37.90
69153;BME280;56261;51.580;4.578;2022-08-11T08:37:04;102286.38;;;28.95;37.51
69153;BME280;56261;51.580;4.578;2022-08-11T08:39:30;102280.75;;;29.34;35.59
69153;BME280;56261;51.580;4.578;2022-08-11T08:42:05;102282.63;;;29.28;36.18
69153;BME280;56261;51.580;4.578;2022-08-11T08:44:33;102285.94;;;29.03;36.45
69153;BME280;56261;51.580;4.578;2022-08-11T08:47:02;102276.09;;;29.34;36.10
69153;BME280;56261;51.580;4.578;2022-08-11T08:49:34;102282.38;;;28.81;36.45
69153;BME280;56261;51.580;4.578;2022-08-11T08:52:02;102276.44;;;29.43;34.59
69153;BME280;56261;51.580;4.578;2022-08-11T08:54:32;102279.28;;;29.91;34.73
69153;BME280;56261;51.580;4.578;2022-08-11T08:57:03;102278.19;;;30.34;36.18
69153;BME280;56261;51.580;4.578;2022-08-11T08:59:31;102271.75;;;29.76;37.37
69153;BME280;56261;51.580;4.578;2022-08-11T09:02:00;102273.09;;;30.11;36.86
69153;BME280;56261;51.580;4.578;2022-08-11T09:04:27;102268.28;;;30.33;36.48
69153;BME280;56261;51.580;4.578;2022-08-11T09:06:55;102271.91;;;30.44;36.13
69153;BME280;56261;51.580;4.578;2022-08-11T09:09:21;102271.63;;;30.46;35.95
69153;BME280;56261;51.580;4.578;2022-08-11T09:11:47;102273.09;;;30.69;36.69
69153;BME280;56261;51.580;4.578;2022-08-11T09:16:49;102270.91;;;30.13;35.74
69153;BME280;56261;51.580;4.578;2022-08-11T09:19:19;102275.69;;;29.85;36.19
69153;BME280;56261;51.580;4.578;2022-08-11T09:21:47;102276.47;;;30.23;35.01
69153;BME280;56261;51.580;4.578;2022-08-11T09:24:34;102264.41;;;31.28;34.14
69153;BME280;56261;51.580;4.578;2022-08-11T09:27:21;102263.81;;;30.27;34.29
69153;BME280;56261;51.580;4.578;2022-08-11T09:29:47;102259.44;;;31.15;32.62
69153;BME280;56261;51.580;4.578;2022-08-11T09:32:13;102266.53;;;30.17;34.35
69153;BME280;56261;51.580;4.578;2022-08-11T09:34:39;102265.84;;;30.42;34.57
69153;BME280;56261;51.580;4.578;2022-08-11T09:37:05;102259.44;;;31.20;32.99
69153;BME280;56261;51.580;4.578;2022-08-11T09:39:53;102248.13;;;31.27;31.90
69153;BME280;56261;51.580;4.578;2022-08-11T09:42:38;102252.75;;;30.85;32.84
69153;BME280;56261;51.580;4.578;2022-08-11T09:45:30;102251.69;;;30.23;33.71
69153;BME280;56261;51.580;4.578;2022-08-11T09:47:57;102250.31;;;30.89;32.47
69153;BME280;56261;51.580;4.578;2022-08-11T09:50:24;102246.81;;;30.40;34.21
69153;BME280;56261;51.580;4.578;2022-08-11T09:52:49;102247.00;;;31.07;32.08
69153;BME280;56261;51.580;4.578;2022-08-11T09:55:15;102247.94;;;30.50;33.42
69153;BME280;56261;51.580;4.578;2022-08-11T09:57:46;102247.22;;;30.75;33.01
69153;BME280;56261;51.580;4.578;2022-08-11T10:00:32;102238.22;;;31.15;31.37
69153;BME280;56261;51.580;4.578;2022-08-11T10:03:05;102241.16;;;30.73;31.28
69153;BME280;56261;51.580;4.578;2022-08-11T10:05:31;102244.13;;;30.51;31.95
69153;BME280;56261;51.580;4.578;2022-08-11T10:08:16;102237.59;;;30.88;30.32
69153;BME280;56261;51.580;4.578;2022-08-11T10:10:45;102238.59;;;30.51;30.92
69153;BME280;56261;51.580;4.578;2022-08-11T10:13:17;102245.53;;;30.69;31.19
69153;BME280;56261;51.580;4.578;2022-08-11T10:15:46;102238.69;;;30.81;30.84
69153;BME280;56261;51.580;4.578;2022-08-11T10:18:18;102234.19;;;30.50;31.92
69153;BME280;56261;51.580;4.578;2022-08-11T10:21:26;102226.81;;;30.71;31.25
69153;BME280;56261;51.580;4.578;2022-08-11T10:23:55;102215.84;;;30.96;30.85
69153;BME280;56261;51.580;4.578;2022-08-11T10:26:41;102224.31;;;30.69;31.18
69153;BME280;56261;51.580;4.578;2022-08-11T10:29:16;102213.31;;;30.64;31.35
69153;BME280;56261;51.580;4.578;2022-08-11T10:32:02;102220.25;;;30.87;31.04
69153;BME280;56261;51.580;4.578;2022-08-11T10:34:47;102214.69;;;30.72;29.88
69153;BME280;56261;51.580;4.578;2022-08-11T10:37:14;102211.56;;;30.37;29.99
69153;BME280;56261;51.580;4.578;2022-08-11T10:39:40;102214.38;;;30.48;30.10
69153;BME280;56261;51.580;4.578;2022-08-11T10:42:08;102217.34;;;30.31;30.67
69153;BME280;56261;51.580;4.578;2022-08-11T10:44:54;102209.47;;;30.07;31.29
69153;BME280;56261;51.580;4.578;2022-08-11T10:47:22;102212.66;;;29.78;30.77
69153;BME280;56261;51.580;4.578;2022-08-11T10:50:10;102207.53;;;30.03;31.51
69153;BME280;56261;51.580;4.578;2022-08-11T10:52:57;102205.81;;;30.39;29.99
69153;BME280;56261;51.580;4.578;2022-08-11T10:55:44;102197.84;;;30.53;30.46
69153;BME280;56261;51.580;4.578;2022-08-11T10:58:29;102189.34;;;30.54;30.44
69153;BME280;56261;51.580;4.578;2022-08-11T11:01:25;102208.00;;;30.47;30.60
69153;BME280;56261;51.580;4.578;2022-08-11T11:04:00;102195.88;;;30.43;29.95
69153;BME280;56261;51.580;4.578;2022-08-11T11:06:39;102189.03;;;30.56;30.46
69153;BME280;56261;51.580;4.578;2022-08-11T11:11:52;102181.69;;;30.97;29.69
69153;BME280;56261;51.580;4.578;2022-08-11T11:14:40;102179.78;;;30.93;30.13
69153;BME280;56261;51.580;4.578;2022-08-11T11:17:37;102181.16;;;31.11;29.84
69153;BME280;56261;51.580;4.578;2022-08-11T11:20:34;102166.50;;;31.41;29.70
69153;BME280;56261;51.580;4.578;2022-08-11T11:23:31;102184.44;;;31.23;29.83
69153;BME280;56261;51.580;4.578;2022-08-11T11:26:21;102176.16;;;30.87;28.26
69153;BME280;56261;51.580;4.578;2022-08-11T11:34:41;102164.31;;;30.92;28.63
69153;BME280;56261;51.580;4.578;2022-08-11T11:37:14;102162.09;;;31.14;29.44
69153;BME280;56261;51.580;4.578;2022-08-11T11:39:41;102167.06;;;31.12;28.20
69153;BME280;56261;51.580;4.578;2022-08-11T11:42:09;102156.59;;;31.35;25.93
69153;BME280;56261;51.580;4.578;2022-08-11T11:44:38;102154.63;;;31.56;25.74
69153;BME280;56261;51.580;4.578;2022-08-11T11:47:05;102162.94;;;31.51;25.71
69153;BME280;56261;51.580;4.578;2022-08-11T11:49:32;102159.88;;;31.52;26.38
69153;BME280;56261;51.580;4.578;2022-08-11T11:52:03;102159.88;;;31.52;26.25
69153;BME280;56261;51.580;4.578;2022-08-11T11:54:31;102160.44;;;31.34;25.38
69153;BME280;56261;51.580;4.578;2022-08-11T11:56:58;102149.72;;;30.86;26.16
69153;BME280;56261;51.580;4.578;2022-08-11T11:59:47;102143.91;;;31.23;25.77
69153;BME280;56261;51.580;4.578;2022-08-11T12:02:34;102150.78;;;31.36;25.73
69153;BME280;56261;51.580;4.578;2022-08-11T12:05:00;102146.09;;;31.37;24.83
69153;BME280;56261;51.580;4.578;2022-08-11T12:07:28;102144.97;;;31.58;24.79
69153;BME280;56261;51.580;4.578;2022-08-11T12:10:13;102137.53;;;31.54;23.93
69153;BME280;56261;51.580;4.578;2022-08-11T12:12:40;102136.72;;;31.53;24.16
69153;BME280;56261;51.580;4.578;2022-08-11T12:15:23;102135.41;;;31.15;24.57
69153;BME280;56261;51.580;4.578;2022-08-11T12:17:49;102137.00;;;31.52;24.32
69153;BME280;56261;51.580;4.578;2022-08-11T12:20:18;102138.94;;;31.36;24.95
69153;BME280;56261;51.580;4.578;2022-08-11T12:22:46;102128.75;;;31.31;24.54
69153;BME280;56261;51.580;4.578;2022-08-11T12:25:30;102130.59;;;31.61;23.93
69153;BME280;56261;51.580;4.578;2022-08-11T12:28:15;102123.88;;;31.88;24.38
69153;BME280;56261;51.580;4.578;2022-08-11T12:30:41;102122.19;;;32.08;24.28
69153;BME280;56261;51.580;4.578;2022-08-11T12:33:07;102115.75;;;31.57;24.89
69153;BME280;56261;51.580;4.578;2022-08-11T12:35:35;102126.44;;;31.74;24.31
69153;BME280;56261;51.580;4.578;2022-08-11T12:38:01;102124.81;;;32.28;24.32
69153;BME280;56261;51.580;4.578;2022-08-11T12:40:27;102125.75;;;32.13;23.62
69153;BME280;56261;51.580;4.578;2022-08-11T12:43:17;102117.47;;;32.13;23.68
69153;BME280;56261;51.580;4.578;2022-08-11T12:46:04;102115.75;;;32.17;23.66
69153;BME280;56261;51.580;4.578;2022-08-11T12:48:33;102109.78;;;32.05;23.50
69153;BME280;56261;51.580;4.578;2022-08-11T12:51:23;102104.72;;;32.17;24.69
69153;BME280;56261;51.580;4.578;2022-08-11T12:54:12;102103.41;;;32.10;24.76
69153;BME280;56261;51.580;4.578;2022-08-11T12:56:43;102106.75;;;31.96;23.72
69153;BME280;56261;51.580;4.578;2022-08-11T12:59:27;102098.41;;;32.12;23.73
69153;BME280;56261;51.580;4.578;2022-08-11T13:02:16;102079.69;;;32.03;24.80
69153;BME280;56261;51.580;4.578;2022-08-11T13:05:02;102090.47;;;32.44;22.85
69153;BME280;56261;51.580;4.578;2022-08-11T13:07:29;102090.00;;;32.32;23.00
69153;BME280;56261;51.580;4.578;2022-08-11T13:09:57;102094.56;;;32.08;22.38
69153;BME280;56261;51.580;4.578;2022-08-11T13:12:26;102090.75;;;31.98;23.49
69153;BME280;56261;51.580;4.578;2022-08-11T13:15:14;102088.16;;;32.17;23.41
69153;BME280;56261;51.580;4.578;2022-08-11T13:17:40;102082.34;;;32.19;23.10
69153;BME280;56261;51.580;4.578;2022-08-11T13:20:11;102079.88;;;32.17;23.80
69153;BME280;56261;51.580;4.578;2022-08-11T13:22:39;102079.03;;;32.61;21.21
69153;BME280;56261;51.580;4.578;2022-08-11T13:25:06;102081.09;;;32.01;22.29
69153;BME280;56261;51.580;4.578;2022-08-11T13:27:32;102075.28;;;32.42;22.58
69153;BME280;56261;51.580;4.578;2022-08-11T13:29:59;102078.94;;;32.32;22.20
69153;BME280;56261;51.580;4.578;2022-08-11T13:32:44;102069.44;;;32.54;21.54
69153;BME280;56261;51.580;4.578;2022-08-11T13:35:11;102078.22;;;32.16;23.12
69153;BME280;56261;51.580;4.578;2022-08-11T13:37:41;102069.56;;;32.33;21.71
69153;BME280;56261;51.580;4.578;2022-08-11T13:40:08;102070.28;;;32.10;23.45
69153;BME280;56261;51.580;4.578;2022-08-11T13:42:36;102061.41;;;32.13;21.27
69153;BME280;56261;51.580;4.578;2022-08-11T13:45:05;102065.63;;;32.44;22.37
69153;BME280;56261;51.580;4.578;2022-08-11T13:47:32;102063.47;;;32.36;23.54
69153;BME280;56261;51.580;4.578;2022-08-11T13:49:58;102055.56;;;32.59;22.61
69153;BME280;56261;51.580;4.578;2022-08-11T13:52:24;102060.91;;;32.45;22.35
69153;BME280;56261;51.580;4.578;2022-08-11T13:54:52;102059.91;;;32.31;23.20
69153;BME280;56261;51.580;4.578;2022-08-11T13:57:19;102045.59;;;32.29;23.47
69153;BME280;56261;51.580;4.578;2022-08-11T13:59:46;102048.91;;;32.65;21.91
69153;BME280;56261;51.580;4.578;2022-08-11T14:02:16;102049.66;;;32.71;22.83
69153;BME280;56261;51.580;4.578;2022-08-11T14:04:47;102050.84;;;32.64;21.89
69153;BME280;56261;51.580;4.578;2022-08-11T14:07:18;102048.13;;;32.20;23.50
69153;BME280;56261;51.580;4.578;2022-08-11T14:09:45;102044.97;;;31.97;22.93
69153;BME280;56261;51.580;4.578;2022-08-11T14:12:22;102045.16;;;32.06;23.75
69153;BME280;56261;51.580;4.578;2022-08-11T14:15:19;102046.97;;;32.26;22.99
69153;BME280;56261;51.580;4.578;2022-08-11T14:17:53;102038.88;;;32.35;23.23
69153;BME280;56261;51.580;4.578;2022-08-11T14:20:20;102038.22;;;32.53;22.30
69153;BME280;56261;51.580;4.578;2022-08-11T14:22:47;102032.53;;;32.68;23.06
69153;BME280;56261;51.580;4.578;2022-08-11T14:25:15;102037.31;;;32.63;22.60
69153;BME280;56261;51.580;4.578;2022-08-11T14:27:44;102036.09;;;32.74;22.26
69153;BME280;56261;51.580;4.578;2022-08-11T14:30:10;102027.66;;;32.21;22.06
69153;BME280;56261;51.580;4.578;2022-08-11T14:32:56;102026.97;;;32.05;24.00
69153;BME280;56261;51.580;4.578;2022-08-11T14:35:24;102035.03;;;32.31;23.08
69153;BME280;56261;51.580;4.578;2022-08-11T14:37:50;102028.78;;;32.20;22.69
69153;BME280;56261;51.580;4.578;2022-08-11T14:40:15;102026.59;;;32.17;22.74
69153;BME280;56261;51.580;4.578;2022-08-11T14:43:00;102026.38;;;32.13;21.96
69153;BME280;56261;51.580;4.578;2022-08-11T14:45:56;102018.78;;;32.29;22.51
69153;BME280;56261;51.580;4.578;2022-08-11T14:48:40;102026.53;;;32.27;21.67
69153;BME280;56261;51.580;4.578;2022-08-11T14:51:06;102022.59;;;31.94;23.75
69153;BME280;56261;51.580;4.578;2022-08-11T14:53:31;102011.97;;;32.51;22.73
69153;BME280;56261;51.580;4.578;2022-08-11T14:55:57;102020.75;;;32.23;22.91
69153;BME280;56261;51.580;4.578;2022-08-11T14:58:43;102011.53;;;31.99;24.12
69153;BME280;56261;51.580;4.578;2022-08-11T15:01:08;102011.44;;;32.14;24.26
69153;BME280;56261;51.580;4.578;2022-08-11T15:03:55;102014.28;;;31.99;23.84
69153;BME280;56261;51.580;4.578;2022-08-11T15:06:24;102016.56;;;31.87;24.13
69153;BME280;56261;51.580;4.578;2022-08-11T15:08:49;102004.06;;;32.04;23.17
69153;BME280;56261;51.580;4.578;2022-08-11T15:11:28;102001.09;;;31.91;23.45
69153;BME280;56261;51.580;4.578;2022-08-11T15:14:13;102006.84;;;31.94;24.24
69153;BME280;56261;51.580;4.578;2022-08-11T15:16:59;102010.44;;;32.00;23.92
69153;BME280;56261;51.580;4.578;2022-08-11T15:19:38;102008.44;;;32.05;24.31
69153;BME280;56261;51.580;4.578;2022-08-11T15:22:24;101989.00;;;32.21;23.29
69153;BME280;56261;51.580;4.578;2022-08-11T15:25:08;102006.94;;;31.84;24.46
69153;BME280;56261;51.580;4.578;2022-08-11T15:27:34;102000.88;;;31.82;22.82
69153;BME280;56261;51.580;4.578;2022-08-11T15:30:21;101998.16;;;31.72;23.86
69153;BME280;56261;51.580;4.578;2022-08-11T15:33:07;101998.84;;;31.93;23.32
69153;BME280;56261;51.580;4.578;2022-08-11T15:35:53;102002.44;;;31.98;24.21
69153;BME280;56261;51.580;4.578;2022-08-11T15:38:41;101990.81;;;31.96;24.17
69153;BME280;56261;51.580;4.578;2022-08-11T15:41:09;101990.50;;;32.08;22.99
69153;BME280;56261;51.580;4.578;2022-08-11T15:43:56;101997.09;;;32.12;23.55
69153;BME280;56261;51.580;4.578;2022-08-11T15:46:45;101983.69;;;31.90;24.35
69153;BME280;56261;51.580;4.578;2022-08-11T15:49:22;101983.75;;;31.80;23.94
69153;BME280;56261;51.580;4.578;2022-08-11T15:52:06;101985.25;;;31.62;25.79
69153;BME280;56261;51.580;4.578;2022-08-11T15:54:34;101975.06;;;32.07;25.03
69153;BME280;56261;51.580;4.578;2022-08-11T15:57:03;101982.47;;;32.12;25.74
69153;BME280;56261;51.580;4.578;2022-08-11T15:59:31;101982.00;;;31.94;24.66
69153;BME280;56261;51.580;4.578;2022-08-11T16:02:20;101976.59;;;31.79;26.33
69153;BME280;56261;51.580;4.578;2022-08-11T16:04:50;101977.59;;;31.98;25.40
69153;BME280;56261;51.580;4.578;2022-08-11T16:07:20;101971.47;;;31.62;25.36
69153;BME280;56261;51.580;4.578;2022-08-11T16:12:40;101966.84;;;31.47;26.43
69153;BME280;56261;51.580;4.578;2022-08-11T16:15:08;101968.94;;;31.65;25.38
69153;BME280;56261;51.580;4.578;2022-08-11T16:17:58;101972.09;;;31.43;26.25
69153;BME280;56261;51.580;4.578;2022-08-11T16:20:27;101976.81;;;31.28;26.21
69153;BME280;56261;51.580;4.578;2022-08-11T16:22:56;101969.19;;;31.09;26.04
69153;BME280;56261;51.580;4.578;2022-08-11T16:25:24;101966.22;;;30.90;26.24
69153;BME280;56261;51.580;4.578;2022-08-11T16:27:54;101959.78;;;31.15;26.75
69153;BME280;56261;51.580;4.578;2022-08-11T16:30:22;101964.69;;;31.23;25.63
69153;BME280;56261;51.580;4.578;2022-08-11T16:32:49;101954.75;;;31.33;25.62
69153;BME280;56261;51.580;4.578;2022-08-11T16:35:19;101955.09;;;31.16;26.47
69153;BME280;56261;51.580;4.578;2022-08-11T16:38:23;101953.22;;;31.01;26.01
69153;BME280;56261;51.580;4.578;2022-08-11T16:41:21;101958.41;;;31.18;26.75
69153;BME280;56261;51.580;4.578;2022-08-11T16:44:08;101946.28;;;31.14;26.22
69153;BME280;56261;51.580;4.578;2022-08-11T16:46:53;101950.09;;;31.28;26.90
69153;BME280;56261;51.580;4.578;2022-08-11T16:49:29;101944.31;;;31.24;27.66
69153;BME280;56261;51.580;4.578;2022-08-11T16:51:55;101950.47;;;31.06;26.50
69153;BME280;56261;51.580;4.578;2022-08-11T16:54:21;101943.59;;;30.93;27.15
69153;BME280;56261;51.580;4.578;2022-08-11T16:56:52;101946.63;;;30.92;26.86
69153;BME280;56261;51.580;4.578;2022-08-11T16:59:35;101945.56;;;30.77;27.36
69153;BME280;56261;51.580;4.578;2022-08-11T17:02:15;101943.63;;;30.78;26.94
69153;BME280;56261;51.580;4.578;2022-08-11T17:05:02;101941.13;;;30.76;25.73